Time;durP1;ratioP1;P1;durP2;ratioP2;P2;SDS_P1;SDS_P2;PMS_P1;PMS_P2;Temp;Humidity;BMP_temperature;BMP_pressure;BME280_temperature;BME280_humidity;BME280_pressure;Samples;Min_cycle;Max_cycle;Signal;HPM_P1;HPM_P2
2023/04/26 00:01:56;;;;;;;12.45;6.88;;;;;;;1.17;100.00;101946.06;5052233;28;20247;-88
2023/04/26 00:04:22;;;;;;;16.23;7.82;;;;;;;1.17;100.00;101957.09;5052089;28;20116;-87
2023/04/26 00:06:48;;;;;;;13.68;7.30;;;;;;;0.76;100.00;101892.06;5052021;28;20046;-84
2023/04/26 00:09:14;;;;;;;14.57;7.43;;;;;;;1.12;100.00;101957.13;5052073;28;20087;-77
2023/04/26 00:11:39;;;;;;;11.52;6.80;;;;;;;1.09;100.00;101951.25;5051990;28;20100;-84
2023/04/26 00:14:04;;;;;;;13.60;8.00;;;;;;;0.84;100.00;101920.00;5052081;28;20025;-83
2023/04/26 00:16:29;;;;;;;14.52;7.65;;;;;;;1.01;100.00;101952.97;5051983;28;20029;-81
2023/04/26 00:18:55;;;;;;;16.08;7.63;;;;;;;0.93;100.00;101942.84;5051996;28;20108;-77
2023/04/26 00:21:20;;;;;;;13.05;7.25;;;;;;;0.75;100.00;101920.03;5052008;28;20018;-87
2023/04/26 00:23:46;;;;;;;12.95;6.25;;;;;;;0.50;100.00;101887.13;5051827;28;20025;-87
2023/04/26 00:26:11;;;;;;;15.52;6.88;;;;;;;0.88;100.00;101956.41;5051868;28;20040;-86
2023/04/26 00:28:37;;;;;;;13.88;6.75;;;;;;;0.85;100.00;101960.66;5051907;28;20032;-79
2023/04/26 00:31:02;;;;;;;13.65;6.95;;;;;;;0.83;100.00;101953.91;5050454;28;20532;-86
2023/04/26 00:33:29;;;;;;;12.93;6.90;;;;;;;0.81;100.00;101956.47;5051726;28;20159;-84
2023/04/26 00:35:54;;;;;;;13.20;7.45;;;;;;;0.80;100.00;101956.47;5054726;28;20047;-86
2023/04/26 00:38:19;;;;;;;11.80;6.78;;;;;;;0.77;100.00;101952.22;5055326;28;20472;-78
2023/04/26 00:40:45;;;;;;;15.27;6.90;;;;;;;0.53;100.00;101927.78;5112107;22;20017;-88
2023/04/26 00:43:10;;;;;;;11.73;6.30;;;;;;;0.57;100.00;101928.59;5075371;28;20032;-88
2023/04/26 00:45:36;;;;;;;15.90;7.85;;;;;;;0.69;100.00;101948.03;5075168;28;20024;-88
2023/04/26 00:48:02;;;;;;;14.90;6.65;;;;;;;0.68;100.00;101959.03;5075036;28;20111;-87
2023/04/26 00:50:31;;;;;;;14.35;6.80;;;;;;;0.62;100.00;101956.53;5075262;28;20368;-76
2023/04/26 00:52:57;;;;;;;13.23;7.00;;;;;;;-0.50;100.00;101763.88;5075271;28;20052;-77
2023/04/26 00:55:25;;;;;;;14.05;6.85;;;;;;;0.58;100.00;101959.06;5075175;28;20021;-88
2023/04/26 00:57:51;;;;;;;15.20;6.63;;;;;;;0.55;100.00;101959.09;5075080;28;20029;-87
2023/04/26 01:00:16;;;;;;;17.70;7.82;;;;;;;0.41;100.00;101934.59;5075144;28;20078;-85
2023/04/26 01:02:43;;;;;;;14.75;7.45;;;;;;;0.51;100.00;101952.34;5074887;28;20017;-87
2023/04/26 01:05:09;;;;;;;14.77;7.28;;;;;;;0.52;100.00;101953.19;5073594;28;20072;-88
2023/04/26 01:07:37;;;;;;;12.85;7.45;;;;;;;0.50;100.00;101957.44;5075123;28;20075;-86
2023/04/26 01:10:04;;;;;;;12.45;6.80;;;;;;;0.48;100.00;101951.50;5075026;28;20371;-85
2023/04/26 01:12:30;;;;;;;18.25;7.65;;;;;;;0.37;100.00;101941.38;5074898;28;20387;-88
2023/04/26 01:14:56;;;;;;;15.18;7.50;;;;;;;0.20;100.00;101916.03;5074849;28;20025;-88
2023/04/26 01:17:21;;;;;;;13.57;7.53;;;;;;;0.19;100.00;101916.84;5074611;28;20028;-86
2023/04/26 01:19:48;;;;;;;16.13;7.57;;;;;;;0.16;100.00;101921.09;5073153;28;20025;-87
2023/04/26 01:22:13;;;;;;;15.93;7.45;;;;;;;0.37;100.00;101961.69;5074542;28;20491;-88
2023/04/26 01:24:42;;;;;;;14.35;7.88;;;;;;;-0.01;100.00;101896.59;5073213;28;20029;-77
2023/04/26 01:27:07;;;;;;;13.63;7.90;;;;;;;0.13;100.00;101923.66;5074557;28;20064;-88
2023/04/26 01:29:33;;;;;;;16.20;8.05;;;;;;;0.14;100.00;101928.72;5074609;28;20056;-76
2023/04/26 01:31:58;;;;;;;13.02;7.72;;;;;;;0.20;100.00;101945.66;5074666;28;20036;-88
2023/04/26 01:34:24;;;;;;;14.48;7.75;;;;;;;0.29;100.00;101955.78;5074191;28;20032;-88
2023/04/26 01:36:49;;;;;;;16.70;7.82;;;;;;;0.21;100.00;101942.28;5074361;28;20024;-76
2023/04/26 01:39:14;;;;;;;15.95;7.85;;;;;;;0.22;100.00;101960.03;5074417;28;20025;-86
2023/04/26 01:41:40;;;;;;;15.18;8.18;;;;;;;-0.01;100.00;101927.06;5074134;28;20051;-75
2023/04/26 01:44:05;;;;;;;13.50;7.15;;;;;;;0.09;100.00;101945.66;5074239;28;20124;-77
2023/04/26 01:46:30;;;;;;;19.42;8.05;;;;;;;0.13;100.00;101957.53;5073426;28;20036;-77
2023/04/26 01:48:56;;;;;;;16.35;8.00;;;;;;;-0.01;100.00;101937.22;5073761;28;20024;-83
2023/04/26 01:51:21;;;;;;;14.07;7.70;;;;;;;0.04;100.00;101946.53;5074226;28;20029;-80
2023/04/26 01:53:47;;;;;;;13.90;7.57;;;;;;;-0.04;100.00;101939.75;5074175;28;20029;-77
2023/04/26 01:56:12;;;;;;;13.43;8.23;;;;;;;0.06;100.00;101955.84;5073991;28;20032;-80
2023/04/26 01:58:38;;;;;;;13.82;7.88;;;;;;;0.04;100.00;101960.06;5074000;28;20028;-81
2023/04/26 02:01:05;;;;;;;15.40;8.20;;;;;;;-0.09;100.00;101943.19;5072796;28;20120;-84
2023/04/26 02:03:31;;;;;;;15.80;7.88;;;;;;;-0.12;100.00;101943.16;5073811;28;20028;-84
2023/04/26 02:05:56;;;;;;;15.57;8.05;;;;;;;-0.32;100.00;101913.56;5073834;28;20051;-80
2023/04/26 02:08:22;;;;;;;14.55;8.73;;;;;;;-0.28;100.00;101919.50;5073962;28;20024;-78
2023/04/26 02:10:47;;;;;;;16.45;7.75;;;;;;;-0.07;100.00;101966.88;5073758;28;20460;-77
2023/04/26 02:13:13;;;;;;;13.63;8.40;;;;;;;-0.25;100.00;101938.94;5073638;28;20111;-78
2023/04/26 02:15:39;;;;;;;13.73;7.25;;;;;;;-0.12;100.00;101966.84;5073457;28;20487;-76
2023/04/26 02:18:05;;;;;;;13.70;7.53;;;;;;;-0.20;100.00;101955.00;5073385;28;20029;-76
2023/04/26 02:20:30;;;;;;;14.68;7.55;;;;;;;-0.18;100.00;101956.72;5073224;28;20028;-78
2023/04/26 02:22:55;;;;;;;14.40;8.13;;;;;;;-0.58;100.00;101894.97;5073382;28;20025;-77
2023/04/26 02:25:21;;;;;;;14.13;7.90;;;;;;;-0.22;100.00;101957.56;5073396;28;20040;-77
2023/04/26 02:27:46;;;;;;;15.30;8.95;;;;;;;-0.24;100.00;101956.72;5073447;28;20032;-77
2023/04/26 02:30:12;;;;;;;14.02;7.30;;;;;;;-0.31;100.00;101948.25;5073324;28;20025;-76
2023/04/26 02:32:37;;;;;;;14.20;7.70;;;;;;;-0.33;100.00;101941.47;5071977;28;20024;-76
2023/04/26 02:35:04;;;;;;;15.05;7.95;;;;;;;-0.45;100.00;101924.56;5072903;28;20027;-75
2023/04/26 02:37:30;;;;;;;13.68;8.32;;;;;;;-0.32;100.00;101946.56;5073178;28;20107;-77
2023/04/26 02:39:55;;;;;;;14.73;7.63;;;;;;;-0.30;100.00;101951.63;5073076;28;20048;-77
2023/04/26 02:42:20;;;;;;;16.05;7.28;;;;;;;-0.32;100.00;101946.56;5072782;28;20036;-78
2023/04/26 02:44:45;;;;;;;14.98;7.75;;;;;;;-0.35;100.00;101945.72;5072882;28;20031;-77
2023/04/26 02:47:11;;;;;;;17.73;9.13;;;;;;;-0.68;100.00;101891.59;5072923;28;20035;-78
2023/04/26 02:49:36;;;;;;;16.70;8.40;;;;;;;-0.36;100.00;101946.56;5072808;28;20078;-78
2023/04/26 02:52:02;;;;;;;15.70;8.38;;;;;;;-0.60;100.00;101909.34;5072986;28;20036;-78
2023/04/26 02:54:27;;;;;;;13.70;8.23;;;;;;;-0.41;100.00;101946.56;5073035;28;20028;-76
2023/04/26 02:56:54;;;;;;;17.60;8.68;;;;;;;-0.41;100.00;101941.47;5072825;28;20051;-77
2023/04/26 02:59:19;;;;;;;15.25;7.88;;;;;;;-0.45;100.00;101939.78;5070508;28;20450;-76
2023/04/26 03:01:44;;;;;;;14.63;7.75;;;;;;;-0.47;100.00;101943.19;5072760;28;20028;-75
2023/04/26 03:04:10;;;;;;;14.10;8.57;;;;;;;-0.53;100.00;101936.41;5072738;28;20020;-76
2023/04/26 03:06:35;;;;;;;14.02;8.10;;;;;;;-0.56;100.00;101931.34;5072379;28;20479;-78
2023/04/26 03:09:01;;;;;;;15.63;8.48;;;;;;;-0.59;100.00;101928.78;5072724;28;20383;-79
2023/04/26 03:11:26;;;;;;;14.88;8.00;;;;;;;-0.63;100.00;101922.03;5072617;28;20020;-79
2023/04/26 03:13:51;;;;;;;13.77;8.10;;;;;;;-0.61;100.00;101930.47;5072666;28;20042;-78
2023/04/26 03:16:22;;;;;;;15.23;7.65;;;;;;;-0.81;100.00;101900.03;5072712;28;20060;-79
2023/04/26 03:18:48;;;;;;;13.23;8.10;;;;;;;-0.65;100.00;101932.19;5072654;28;20054;-76
2023/04/26 03:21:14;;;;;;;18.40;8.43;;;;;;;-0.68;100.00;101923.72;5072206;28;20028;-76
2023/04/26 03:23:39;;;;;;;15.07;8.27;;;;;;;-0.70;100.00;101931.31;5072180;28;20055;-77
2023/04/26 03:26:04;;;;;;;14.80;8.32;;;;;;;-0.71;100.00;101932.16;5072396;28;20029;-76
2023/04/26 03:28:30;;;;;;;14.98;8.75;;;;;;;-0.72;100.00;101929.63;5072581;28;20340;-77
2023/04/26 03:30:55;;;;;;;13.52;7.88;;;;;;;-1.11;100.00;101880.53;5072502;28;20478;-78
2023/04/26 03:33:20;;;;;;;13.02;7.68;;;;;;;-0.75;100.00;101939.78;5072395;28;20032;-79
2023/04/26 03:35:46;;;;;;;16.75;8.38;;;;;;;-1.25;100.00;101851.81;5072258;28;20021;-78
2023/04/26 03:38:11;;;;;;;16.40;8.70;;;;;;;-1.00;100.00;101894.06;5072206;28;20024;-77
2023/04/26 03:40:37;;;;;;;16.52;7.80;;;;;;;-0.88;100.00;101911.03;5070646;28;20082;-78
2023/04/26 03:43:02;;;;;;;15.85;7.97;;;;;;;-0.84;100.00;101927.06;5070827;28;20047;-77
2023/04/26 03:45:27;;;;;;;15.88;8.52;;;;;;;-0.99;100.00;101900.00;5072270;28;20142;-77
2023/04/26 03:47:53;;;;;;;16.50;8.35;;;;;;;-0.86;100.00;101919.47;5072189;28;20036;-77
2023/04/26 03:50:19;;;;;;;13.93;8.35;;;;;;;-0.80;100.00;101923.69;5071057;28;20112;-78
2023/04/26 03:52:44;;;;;;;16.48;8.63;;;;;;;-0.81;100.00;101927.06;5072107;28;20036;-78
2023/04/26 03:55:10;;;;;;;16.45;8.40;;;;;;;-0.91;100.00;101916.91;5071983;28;20052;-77
2023/04/26 03:57:36;;;;;;;17.40;8.85;;;;;;;-0.92;100.00;101914.38;5072112;28;20016;-76
2023/04/26 04:00:07;;;;;;;15.35;8.30;;;;;;;-0.88;100.00;101931.31;5072199;28;20040;-78
2023/04/26 04:02:32;;;;;;;18.33;8.52;;;;;;;-0.89;100.00;101929.59;5072288;28;20066;-79
2023/04/26 04:04:58;;;;;;;19.40;8.82;;;;;;;-0.91;100.00;101932.13;5071865;28;20025;-78
2023/04/26 04:07:23;;;;;;;19.85;8.98;;;;;;;-0.93;100.00;101930.44;5071766;28;20379;-76
2023/04/26 04:09:48;;;;;;;15.00;8.70;;;;;;;-0.95;100.00;101930.44;5073095;28;20051;-75
2023/04/26 04:12:14;;;;;;;13.73;7.97;;;;;;;-0.95;100.00;101927.91;5075951;28;20103;-77
2023/04/26 04:14:39;;;;;;;16.85;8.85;;;;;;;-1.03;100.00;101911.81;5075750;28;20055;-76
2023/04/26 04:17:05;;;;;;;18.05;8.65;;;;;;;-0.94;100.00;101927.06;5075853;28;20025;-87
2023/04/26 04:19:30;;;;;;;20.90;9.85;;;;;;;-0.91;100.00;101928.75;5074292;28;20475;-78
2023/04/26 04:21:55;;;;;;;15.80;8.93;;;;;;;-1.21;100.00;101878.81;5075514;28;20017;-77
2023/04/26 04:24:21;;;;;;;16.10;9.50;;;;;;;-0.89;100.00;101938.03;5075629;28;20024;-82
2023/04/26 04:26:46;;;;;;;18.20;9.45;;;;;;;-0.93;100.00;101921.13;5075899;28;20074;-87
2023/04/26 04:29:11;;;;;;;17.35;8.68;;;;;;;-0.94;100.00;101916.06;5075748;28;20027;-89
2023/04/26 04:31:38;;;;;;;14.43;9.23;;;;;;;-0.84;100.00;101927.06;5075754;28;20032;-87
2023/04/26 04:34:04;;;;;;;18.77;9.30;;;;;;;-0.80;100.00;101929.59;5075739;28;20025;-82
2023/04/26 04:36:30;;;;;;;19.67;9.88;;;;;;;-1.13;100.00;101864.50;5075443;28;20364;-88
2023/04/26 04:38:55;;;;;;;17.40;9.32;;;;;;;-0.90;100.00;101894.94;5075500;28;20012;-86
2023/04/26 04:41:21;;;;;;;19.25;10.70;;;;;;;-0.61;100.00;101928.78;5073781;28;20037;-88
2023/04/26 04:43:46;;;;;;;20.75;11.10;;;;;;;-0.73;100.00;101905.94;5075373;28;20024;-88
2023/04/26 04:46:12;;;;;;;17.67;9.60;;;;;;;-0.45;100.00;101937.25;5075485;28;20514;-83
2023/04/26 04:48:37;;;;;;;18.48;10.70;;;;;;;-0.40;100.00;101945.69;5075256;28;20025;-84
2023/04/26 04:51:03;;;;;;;24.77;10.70;;;;;;;-0.34;100.00;101952.47;5075237;28;20048;-87
2023/04/26 04:53:28;;;;;;;21.73;10.80;;;;;;;-0.25;100.00;101949.09;5075189;28;20060;-87
2023/04/26 04:55:54;;;;;;;21.85;10.60;;;;;;;-0.14;100.00;101949.94;5074990;28;20066;-87
2023/04/26 04:58:21;;;;;;;21.95;10.25;;;;;;;-0.05;100.00;101950.78;5075275;28;20027;-82
2023/04/26 05:00:46;;;;;;;18.42;9.90;;;;;;;0.11;100.00;101953.31;5075213;28;20047;-82
2023/04/26 05:03:13;;;;;;;16.73;9.98;;;;;;;0.25;100.00;101957.50;5075081;28;20460;-85
2023/04/26 05:05:39;;;;;;;18.25;10.10;;;;;;;0.39;100.00;101956.59;5074639;28;20115;-84
2023/04/26 05:08:06;;;;;;;19.33;11.07;;;;;;;0.56;100.00;101954.84;5074807;28;20115;-81
2023/04/26 05:10:33;;;;;;;22.80;11.70;;;;;;;0.57;100.00;101928.59;5073605;28;20487;-88
2023/04/26 05:12:58;;;;;;;23.13;12.32;;;;;;;0.91;100.00;101949.63;5074987;28;20063;-88
2023/04/26 05:15:24;;;;;;;21.85;11.90;;;;;;;1.18;100.00;101957.94;5074840;28;20357;-88
2023/04/26 05:17:50;;;;;;;25.90;12.60;;;;;;;1.21;100.00;101925.72;5074715;28;20382;-88
2023/04/26 05:20:16;;;;;;;24.55;12.80;;;;;;;1.60;100.00;101962.75;5074627;28;20078;-85
2023/04/26 05:22:41;;;;;;;21.50;11.30;;;;;;;1.06;100.00;101844.41;5073410;28;20029;-88
2023/04/26 05:25:08;;;;;;;22.60;11.50;;;;;;;1.58;100.00;101905.09;5074340;28;20107;-87
2023/04/26 05:27:33;;;;;;;20.13;12.02;;;;;;;2.17;100.00;101957.16;5074597;28;20032;-88
2023/04/26 05:30:03;;;;;;;19.75;11.77;;;;;;;2.26;100.00;101941.75;5074675;28;20021;-88
2023/04/26 05:32:28;;;;;;;20.65;11.20;;;;;;;1.59;100.00;101822.75;5074334;28;20150;-88
2023/04/26 05:34:54;;;;;;;19.88;11.75;;;;;;;2.54;100.00;101958.44;5074644;28;20056;-88
2023/04/26 05:37:19;;;;;;;20.75;11.15;;;;;;;2.30;100.00;101916.22;5074105;28;20028;-87
2023/04/26 05:39:45;;;;;;;22.65;11.30;;;;;;;2.57;100.00;101963.53;5074226;28;20032;-85
2023/04/26 05:42:10;;;;;;;22.67;10.63;;;;;;;2.40;100.00;101933.97;5074675;28;20041;-91
2023/04/26 05:44:35;;;;;;;18.70;10.70;;;;;;;2.64;100.00;101968.53;5074418;28;20031;-88
2023/04/26 05:47:01;;;;;;;17.77;9.98;;;;;;;2.41;100.00;101920.38;5074262;28;20078;-91
2023/04/26 05:49:26;;;;;;;21.13;11.02;;;;;;;2.36;100.00;101914.47;5074355;28;20479;-90
2023/04/26 05:51:51;;;;;;;18.60;10.27;;;;;;;2.71;100.00;101967.59;5074035;28;20025;-89
2023/04/26 05:54:17;;;;;;;17.95;10.48;;;;;;;2.73;100.00;101973.53;5073936;28;20024;-79
2023/04/26 05:56:42;;;;;;;17.95;10.25;;;;;;;2.84;100.00;101972.53;5072622;28;20032;-87
2023/04/26 05:59:08;;;;;;;20.67;10.43;;;;;;;3.25;100.00;101958.38;5074171;28;20036;-87
2023/04/26 06:01:33;;;;;;;18.08;9.90;;;;;;;4.37;100.00;101964.16;5073137;28;20071;-91
2023/04/26 06:03:58;;;;;;;15.90;9.77;;;;;;;5.54;94.33;101900.16;5074684;28;20021;-77
2023/04/26 06:06:24;;;;;;;13.38;8.23;;;;;;;7.41;86.29;101978.72;5073737;28;20425;-78
2023/04/26 06:08:50;;;;;;;13.50;7.85;;;;;;;8.96;77.15;101960.53;5073706;28;20021;-76
2023/04/26 06:11:15;;;;;;;14.57;7.60;;;;;;;10.00;70.71;101890.06;5073666;28;20056;-79
2023/04/26 06:13:41;;;;;;;17.17;8.25;;;;;;;11.20;65.78;101925.03;5073422;28;20098;-77
2023/04/26 06:16:07;;;;;;;13.63;7.60;;;;;;;12.00;62.65;101963.41;5073838;28;20032;-74
2023/04/26 06:18:32;;;;;;;11.82;6.63;;;;;;;12.18;60.40;101930.53;5073799;28;20464;-77
2023/04/26 06:20:57;;;;;;;13.43;7.63;;;;;;;12.31;59.57;101955.72;5066096;28;20052;-74
2023/04/26 06:23:23;;;;;;;14.57;6.97;;;;;;;12.67;58.46;101964.19;5073732;28;20486;-77
2023/04/26 06:25:48;;;;;;;13.38;7.90;;;;;;;12.72;56.18;101960.44;5071954;28;20100;-76
2023/04/26 06:28:13;;;;;;;14.40;6.85;;;;;;;12.14;57.80;101963.50;5073181;28;20101;-76
2023/04/26 06:30:39;;;;;;;12.55;6.78;;;;;;;11.30;59.85;101952.13;5073430;28;20042;-75
2023/04/26 06:33:04;;;;;;;11.70;7.25;;;;;;;10.60;61.00;101965.75;5073574;28;20036;-76
2023/04/26 06:35:30;;;;;;;14.73;6.95;;;;;;;9.66;63.73;101950.84;5072908;28;20429;-77
2023/04/26 06:37:55;;;;;;;13.55;6.90;;;;;;;9.02;66.42;101976.56;5073097;28;20536;-76
2023/04/26 06:40:21;;;;;;;14.45;7.57;;;;;;;8.49;68.39;101958.81;5073181;28;20486;-76
2023/04/26 06:42:46;;;;;;;14.38;7.28;;;;;;;8.60;71.46;101984.16;5072674;28;20040;-74
2023/04/26 06:45:13;;;;;;;14.85;6.90;;;;;;;9.03;71.17;101980.00;5073022;28;20029;-75
2023/04/26 06:47:38;;;;;;;12.23;6.60;;;;;;;9.86;67.37;101986.13;5073427;28;20029;-76
2023/04/26 06:50:04;;;;;;;14.23;7.30;;;;;;;10.05;65.95;101974.13;5073285;28;20476;-74
2023/04/26 06:52:30;;;;;;;10.68;7.28;;;;;;;10.07;66.27;101968.91;5072972;28;20037;-75
2023/04/26 06:54:55;;;;;;;12.05;6.45;;;;;;;10.26;66.28;101984.47;5073107;28;20117;-75
2023/04/26 06:57:21;;;;;;;13.77;7.07;;;;;;;9.97;65.80;101985.69;5072950;28;20490;-76
2023/04/26 06:59:47;;;;;;;10.73;5.95;;;;;;;9.53;66.62;101984.91;5073145;28;20028;-77
2023/04/26 07:02:13;;;;;;;13.23;6.60;;;;;;;8.86;67.53;101957.47;5073044;28;20430;-75
2023/04/26 07:04:38;;;;;;;11.05;5.78;;;;;;;8.85;69.37;101987.53;5072916;28;20020;-78
2023/04/26 07:07:04;;;;;;;11.73;5.88;;;;;;;8.58;69.19;101950.75;5073922;28;20021;-74
2023/04/26 07:09:30;;;;;;;12.27;6.43;;;;;;;8.80;69.37;101971.41;5073626;28;20021;-76
2023/04/26 07:11:55;;;;;;;13.88;5.88;;;;;;;8.89;68.48;101947.03;5072663;28;20107;-76
2023/04/26 07:14:21;;;;;;;13.13;6.80;;;;;;;9.35;69.49;101989.91;5073595;28;20431;-76
2023/04/26 07:16:46;;;;;;;12.15;6.43;;;;;;;9.16;68.00;101976.91;5072892;28;20357;-75
2023/04/26 07:19:11;;;;;;;10.82;6.03;;;;;;;8.91;70.16;101995.00;5073933;28;20418;-79
2023/04/26 07:21:37;;;;;;;12.65;6.10;;;;;;;8.63;71.29;101994.34;5076619;28;20024;-76
2023/04/26 07:24:02;;;;;;;13.38;6.32;;;;;;;8.52;71.68;101988.75;5076182;28;20108;-87
2023/04/26 07:26:28;;;;;;;13.80;6.40;;;;;;;8.41;71.85;101986.56;5076941;28;20044;-76
2023/04/26 07:28:54;;;;;;;10.95;6.20;;;;;;;8.25;72.94;101964.78;5072871;28;20024;-75
2023/04/26 07:31:20;;;;;;;11.32;5.75;;;;;;;8.60;73.04;101992.72;5072529;28;20032;-76
2023/04/26 07:33:45;;;;;;;15.65;6.35;;;;;;;8.83;71.78;101966.13;5072871;28;20024;-77
2023/04/26 07:36:10;;;;;;;12.45;6.20;;;;;;;9.07;71.40;101982.41;5072682;28;20028;-77
2023/04/26 07:38:36;;;;;;;10.60;5.68;;;;;;;8.54;69.45;101883.97;5072283;28;20021;-76
2023/04/26 07:41:01;;;;;;;11.32;6.03;;;;;;;8.76;69.48;101910.59;5072802;28;20117;-76
2023/04/26 07:43:27;;;;;;;9.85;5.25;;;;;;;9.21;68.82;101979.28;5073258;28;20122;-77
2023/04/26 07:45:52;;;;;;;13.50;5.07;;;;;;;9.35;69.44;101987.34;5075815;28;20029;-79
2023/04/26 07:48:18;;;;;;;13.05;5.68;;;;;;;9.48;68.26;101977.38;5076735;28;20029;-76
2023/04/26 07:50:43;;;;;;;12.65;5.43;;;;;;;9.36;67.80;101944.34;5076316;28;20016;-75
2023/04/26 07:53:09;;;;;;;9.68;5.20;;;;;;;9.54;66.86;101974.56;5076134;28;20038;-75
2023/04/26 07:55:36;;;;;;;8.05;3.60;;;;;;;9.02;64.34;101934.50;5076452;28;20464;-78
2023/04/26 07:58:02;;;;;;;11.75;4.90;;;;;;;9.22;67.55;101983.53;5070416;28;20051;-78
2023/04/26 08:00:27;;;;;;;6.05;2.65;;;;;;;9.05;63.94;101967.91;5076905;28;20024;-82
2023/04/26 08:02:53;;;;;;;10.65;3.33;;;;;;;9.29;64.89;101987.56;5076023;28;20475;-76
2023/04/26 08:05:18;;;;;;;8.52;2.95;;;;;;;9.49;62.21;101997.94;5076113;28;20036;-86
2023/04/26 08:07:43;;;;;;;9.73;3.20;;;;;;;9.44;62.69;101980.97;5076108;28;20378;-75
2023/04/26 08:10:09;;;;;;;7.35;3.20;;;;;;;9.37;63.74;101989.84;5076113;28;20070;-77
2023/04/26 08:12:36;;;;;;;7.55;3.50;;;;;;;9.49;62.40;102010.81;5076495;28;20149;-77
2023/04/26 08:15:07;;;;;;;9.30;2.80;;;;;;;9.21;62.58;101974.13;5076193;28;20085;-88
2023/04/26 08:17:32;;;;;;;7.47;3.03;;;;;;;9.49;62.89;101999.66;5075625;28;20025;-79
2023/04/26 08:19:58;;;;;;;9.05;3.65;;;;;;;9.67;62.45;101990.38;5075820;28;20048;-90
2023/04/26 08:22:23;;;;;;;7.53;3.30;;;;;;;9.78;62.08;102001.91;5075503;28;20024;-87
2023/04/26 08:24:50;;;;;;;9.25;2.25;;;;;;;9.74;58.78;101991.81;5076471;28;20035;-81
2023/04/26 08:27:17;;;;;;;6.85;2.03;;;;;;;9.84;60.46;101990.53;5075859;28;20028;-93
2023/04/26 08:29:43;;;;;;;7.75;2.05;;;;;;;9.82;60.52;101950.19;5075860;28;20042;-89
2023/04/26 08:32:08;;;;;;;6.47;2.47;;;;;;;10.00;56.78;101977.81;5075525;28;20029;-79
2023/04/26 08:34:33;;;;;;;6.13;2.20;;;;;;;10.17;58.49;101990.84;5075654;28;20028;-85
2023/04/26 08:36:59;;;;;;;7.43;2.85;;;;;;;10.13;57.98;101993.59;5075547;28;20016;-86
2023/04/26 08:39:25;;;;;;;8.07;2.90;;;;;;;9.92;58.30;101962.63;5075363;28;20024;-88
2023/04/26 08:41:56;;;;;;;6.32;1.98;;;;;;;9.98;57.42;101997.69;5075464;28;20052;-87
2023/04/26 08:44:23;;;;;;;6.40;1.75;;;;;;;9.28;55.65;101903.41;5075277;28;20023;-87
2023/04/26 08:46:58;;;;;;;6.43;2.35;;;;;;;9.82;56.29;101996.63;5074939;28;20486;-76
2023/04/26 08:49:34;;;;;;;5.72;1.80;;;;;;;9.40;54.99;101933.00;5075253;28;20029;-90
2023/04/26 08:52:02;;;;;;;8.48;1.80;;;;;;;9.58;55.01;101991.56;5075367;28;20027;-87
2023/04/26 08:54:28;;;;;;;8.85;2.03;;;;;;;9.55;56.05;101989.13;5075266;28;20032;-80
2023/04/26 08:56:57;;;;;;;8.80;2.55;;;;;;;9.62;57.80;101987.94;5075128;28;20025;-82
2023/04/26 08:59:23;;;;;;;8.27;2.40;;;;;;;9.83;57.28;101990.56;5070213;28;20371;-75
2023/04/26 09:01:48;;;;;;;7.38;2.25;;;;;;;9.81;56.65;101987.22;5075558;28;20031;-73
2023/04/26 09:04:14;;;;;;;7.50;2.10;;;;;;;9.62;57.03;101971.66;5075035;28;20028;-75
2023/04/26 09:06:40;;;;;;;6.55;1.63;;;;;;;9.53;57.19;101965.13;5074932;28;20405;-80
2023/04/26 09:09:08;;;;;;;6.47;2.30;;;;;;;9.49;58.52;101976.47;5075132;28;20025;-91
2023/04/26 09:11:56;;;;;;;9.20;2.33;;;;;;;9.42;57.86;101982.75;5074944;28;20075;-74
2023/04/26 09:14:22;;;;;;;6.13;2.33;;;;;;;9.15;56.57;101964.09;5073961;28;20333;-93
2023/04/26 09:16:48;;;;;;;7.47;2.35;;;;;;;9.34;57.36;101983.09;5074908;28;20116;-94
2023/04/26 09:19:13;;;;;;;8.55;2.50;;;;;;;9.39;56.91;101977.72;5073459;28;20036;-92
2023/04/26 09:21:43;;;;;;;7.18;1.92;;;;;;;9.29;55.49;101956.63;5074883;28;20108;-74
2023/04/26 09:24:08;;;;;;;7.95;2.30;;;;;;;9.32;56.93;101947.94;5072872;28;20066;-78
2023/04/26 09:26:34;;;;;;;5.25;2.00;;;;;;;9.61;55.75;101969.97;5074998;28;20024;-93
2023/04/26 09:29:19;;;;;;;5.25;2.20;;;;;;;9.88;57.26;101979.16;5074639;28;20029;-93
2023/04/26 09:31:47;;;;;;;4.97;2.40;;;;;;;9.97;55.07;101975.34;5073261;28;20021;-80
2023/04/26 09:34:13;;;;;;;6.82;2.45;;;;;;;9.90;53.03;101948.13;5074573;28;20024;-87
2023/04/26 09:37:11;;;;;;;7.47;2.85;;;;;;;10.35;54.98;101971.16;5074665;28;20548;-87
2023/04/26 09:39:39;;;;;;;6.03;2.03;;;;;;;10.36;52.49;101967.69;5074061;28;20035;-93
2023/04/26 09:42:08;;;;;;;6.32;2.15;;;;;;;10.49;52.66;101949.91;5073031;28;20044;-93
2023/04/26 09:44:34;;;;;;;5.57;2.40;;;;;;;10.84;49.99;101974.97;5074398;28;20906;-93
2023/04/26 09:47:11;;;;;;;6.97;2.58;;;;;;;10.87;49.80;101961.91;5074447;28;20032;-90
2023/04/26 09:49:47;;;;;;;6.50;2.10;;;;;;;11.17;49.17;101988.06;5074409;28;20024;-83
2023/04/26 09:52:15;;;;;;;4.38;1.85;;;;;;;11.00;48.32;101962.16;5074310;28;20124;-87
2023/04/26 09:54:52;;;;;;;5.47;1.95;;;;;;;11.06;51.45;101961.06;5072201;28;20041;-85
2023/04/26 09:57:18;;;;;;;7.22;2.08;;;;;;;11.04;47.91;101979.22;5072154;28;20027;-90
2023/04/26 09:59:55;;;;;;;6.78;2.50;;;;;;;10.98;50.14;101978.66;5074501;28;20028;-77
2023/04/26 10:02:25;;;;;;;7.88;2.22;;;;;;;10.79;50.31;101981.25;5073730;28;20035;-73
2023/04/26 10:04:55;;;;;;;7.03;2.47;;;;;;;10.55;51.20;101963.38;5072135;28;20028;-75
2023/04/26 10:07:24;;;;;;;5.05;2.20;;;;;;;10.26;52.59;101951.75;5073075;28;20025;-75
2023/04/26 10:09:49;;;;;;;7.28;2.70;;;;;;;10.16;52.10;101971.09;5073604;28;20081;-71
2023/04/26 10:12:17;;;;;;;4.88;2.13;;;;;;;9.90;53.36;101946.38;5073623;28;20029;-76
2023/04/26 10:14:45;;;;;;;3.75;1.75;;;;;;;9.94;51.43;101973.75;5073508;28;20028;-73
2023/04/26 10:17:12;;;;;;;7.25;2.22;;;;;;;9.92;52.95;101954.88;5073440;28;20028;-75
2023/04/26 10:19:39;;;;;;;8.60;2.70;;;;;;;10.00;52.93;101958.00;5073725;28;20020;-72
2023/04/26 10:22:09;;;;;;;8.73;2.95;;;;;;;10.28;54.05;101973.16;5070404;28;20495;-72
2023/04/26 10:24:35;;;;;;;8.32;2.80;;;;;;;10.39;54.01;101962.38;5072393;28;20043;-73
2023/04/26 10:27:02;;;;;;;9.07;2.83;;;;;;;10.67;53.75;101974.06;5073115;28;20028;-74
2023/04/26 10:29:54;;;;;;;6.82;2.75;;;;;;;11.02;51.97;101965.53;5073293;28;20029;-74
2023/04/26 10:32:22;;;;;;;;;;;;;;;11.51;53.10;101973.56;5070554;28;20040;-73
2023/04/26 10:35:15;;;;;;;6.07;2.50;;;;;;;11.93;50.37;101969.78;5071793;28;19977;-74
2023/04/26 10:38:02;;;;;;;7.38;2.95;;;;;;;12.27;49.27;101961.94;5073109;28;20065;-72
2023/04/26 10:40:38;;;;;;;10.27;3.00;;;;;;;12.46;48.50;101948.03;5072576;28;20035;-75
2023/04/26 10:43:15;;;;;;;9.00;3.10;;;;;;;12.59;48.89;101962.03;5072584;28;20020;-74
2023/04/26 10:45:44;;;;;;;6.03;2.70;;;;;;;12.56;51.67;101923.31;5073041;28;20111;-76
2023/04/26 10:48:19;;;;;;;7.50;3.10;;;;;;;12.66;47.78;101934.03;5073344;28;20472;-76
2023/04/26 10:51:00;;;;;;;8.88;2.90;;;;;;;12.83;49.57;101952.94;5072792;28;20032;-78
2023/04/26 10:53:29;;;;;;;5.32;2.47;;;;;;;12.79;46.00;101948.84;5073073;28;20100;-75
2023/04/26 10:55:54;;;;;;;6.90;2.33;;;;;;;12.60;44.56;101940.38;5072552;28;20082;-76
2023/04/26 10:58:33;;;;;;;5.32;2.45;;;;;;;12.58;46.40;101956.00;5073086;28;20040;-77
2023/04/26 11:01:10;;;;;;;4.85;2.00;;;;;;;12.09;45.66;101956.88;5072910;28;20035;-76
2023/04/26 11:03:37;;;;;;;7.05;2.40;;;;;;;11.56;45.75;101925.00;5072973;28;20032;-79
2023/04/26 11:06:06;;;;;;;6.55;2.42;;;;;;;11.38;45.65;101955.19;5073038;28;20020;-78
2023/04/26 11:08:33;;;;;;;12.45;2.47;;;;;;;11.05;46.77;101955.06;5072960;28;20029;-78
2023/04/26 11:11:01;;;;;;;5.70;2.13;;;;;;;10.83;48.17;101956.97;5072711;28;20434;-77
2023/04/26 11:13:29;;;;;;;7.25;2.70;;;;;;;10.53;50.49;101935.94;5072577;28;20028;-76
2023/04/26 11:16:15;;;;;;;8.45;2.40;;;;;;;10.43;50.23;101922.63;5072591;28;20472;-83
2023/04/26 11:18:45;;;;;;;6.20;2.50;;;;;;;10.47;49.06;101938.78;5072077;28;20422;-78